地図

経路データ

SID SEASON NUMBER BASIN SUBBASIN NAME ISO_TIME NATURE LAT LON WMO_WIND WMO_PRES WMO_AGENCY TRACK_TYPE DIST2LAND LANDFALL IFLAG USA_AGENCY USA_ATCF_ID USA_LAT USA_LON USA_RECORD USA_STATUS USA_WIND USA_PRES USA_SSHS USA_R34_NE USA_R34_SE USA_R34_SW USA_R34_NW USA_R50_NE USA_R50_SE USA_R50_SW USA_R50_NW USA_R64_NE USA_R64_SE USA_R64_SW USA_R64_NW USA_POCI USA_ROCI USA_RMW USA_EYE TOKYO_LAT TOKYO_LON TOKYO_GRADE TOKYO_WIND TOKYO_PRES TOKYO_R50_DIR TOKYO_R50_LONG TOKYO_R50_SHORT TOKYO_R30_DIR TOKYO_R30_LONG TOKYO_R30_SHORT TOKYO_LAND CMA_LAT CMA_LON CMA_CAT CMA_WIND CMA_PRES HKO_LAT HKO_LON HKO_CAT HKO_WIND HKO_PRES NEWDELHI_LAT NEWDELHI_LON NEWDELHI_GRADE NEWDELHI_WIND NEWDELHI_PRES NEWDELHI_CI NEWDELHI_DP NEWDELHI_POCI REUNION_LAT REUNION_LON REUNION_TYPE REUNION_WIND REUNION_PRES REUNION_TNUM REUNION_CI REUNION_RMW REUNION_R34_NE REUNION_R34_SE REUNION_R34_SW REUNION_R34_NW REUNION_R50_NE REUNION_R50_SE REUNION_R50_SW REUNION_R50_NW REUNION_R64_NE REUNION_R64_SE REUNION_R64_SW REUNION_R64_NW BOM_LAT BOM_LON BOM_TYPE BOM_WIND BOM_PRES BOM_TNUM BOM_CI BOM_RMW BOM_R34_NE BOM_R34_SE BOM_R34_SW BOM_R34_NW BOM_R50_NE BOM_R50_SE BOM_R50_SW BOM_R50_NW BOM_R64_NE BOM_R64_SE BOM_R64_SW BOM_R64_NW BOM_ROCI BOM_POCI BOM_EYE BOM_POS_METHOD BOM_PRES_METHOD NADI_LAT NADI_LON NADI_CAT NADI_WIND NADI_PRES WELLINGTON_LAT WELLINGTON_LON WELLINGTON_WIND WELLINGTON_PRES DS824_LAT DS824_LON DS824_STAGE DS824_WIND DS824_PRES TD9636_LAT TD9636_LON TD9636_STAGE TD9636_WIND TD9636_PRES TD9635_LAT TD9635_LON TD9635_WIND TD9635_PRES TD9635_ROCI NEUMANN_LAT NEUMANN_LON NEUMANN_CLASS NEUMANN_WIND NEUMANN_PRES MLC_LAT MLC_LON MLC_CLASS MLC_WIND MLC_PRES USA_GUST BOM_GUST BOM_GUST_PER REUNION_GUST REUNION_GUST_PER USA_SEAHGT USA_SEARAD_NE USA_SEARAD_SE USA_SEARAD_SW USA_SEARAD_NW STORM_SPEED STORM_DIR
1991174N13259 1991 32 EP MM DELORES 1991-06-22 12:00:00 TS 12.6000 -101.100 25 1007 hurdat_epa main 483 472 O_____________ hurdat_epa EP041991 12.6000 -101.100 TD 25 1007 -1 3 316
1991174N13259 1991 32 EP MM DELORES 1991-06-22 15:00:00 TS 12.7025 -101.200 main 475 469 P_____________ EP041991 12.7025 -101.200 TD 25 1006 -1 3 316
1991174N13259 1991 32 EP MM DELORES 1991-06-22 18:00:00 TS 12.8000 -101.300 25 1006 hurdat_epa main 469 463 O_____________ hurdat_epa EP041991 12.8000 -101.300 TD 25 1006 -1 3 314
1991174N13259 1991 32 EP MM DELORES 1991-06-22 21:00:00 TS 12.8925 -101.400 main 463 457 P_____________ EP041991 12.8925 -101.400 TD 25 1005 -1 3 316
1991174N13259 1991 32 EP MM DELORES 1991-06-23 00:00:00 TS 13.0000 -101.500 25 1005 hurdat_epa main 457 451 O_____________ hurdat_epa EP041991 13.0000 -101.500 TD 25 1005 -1 3 317
1991174N13259 1991 32 EP MM DELORES 1991-06-23 03:00:00 TS 13.1200 -101.615 main 451 437 P_____________ EP041991 13.1200 -101.615 TD 25 1004 -1 4 327
1991174N13259 1991 32 EP MM DELORES 1991-06-23 06:00:00 TS 13.3000 -101.700 25 1003 hurdat_epa main 437 408 O_____________ hurdat_epa EP041991 13.3000 -101.700 TD 25 1003 -1 5 348
1991174N13259 1991 32 EP MM DELORES 1991-06-23 09:00:00 TS 13.5775 -101.715 main 408 379 P_____________ EP041991 13.5775 -101.715 TD 25 1002 -1 6 1
1991174N13259 1991 32 EP MM DELORES 1991-06-23 12:00:00 TS 13.9000 -101.700 25 1001 hurdat_epa main 379 349 O_____________ hurdat_epa EP041991 13.9000 -101.700 TD 25 1001 -1 6 2
1991174N13259 1991 32 EP MM DELORES 1991-06-23 15:00:00 TS 14.2150 -101.693 main 349 317 P_____________ EP041991 14.2150 -101.693 TD 27 1000 -1 6 1
1991174N13259 1991 32 EP MM DELORES 1991-06-23 18:00:00 TS 14.5000 -101.700 30 1000 hurdat_epa main 317 295 O_____________ hurdat_epa EP041991 14.5000 -101.700 TD 30 1000 -1 5 355
1991174N13259 1991 32 EP MM DELORES 1991-06-23 21:00:00 TS 14.7150 -101.735 main 295 278 P_____________ EP041991 14.7150 -101.735 TD 32 999 -1 4 347
1991174N13259 1991 32 EP MM DELORES 1991-06-24 00:00:00 TS 14.9000 -101.800 35 998 hurdat_epa main 278 260 O_____________ hurdat_epa EP041991 14.9000 -101.800 TS 35 998 0 4 339
1991174N13259 1991 32 EP MM DELORES 1991-06-24 03:00:00 TS 15.0925 -101.885 main 260 243 P_____________ EP041991 15.0925 -101.885 TS 37 997 0 4 334
1991174N13259 1991 32 EP MM DELORES 1991-06-24 06:00:00 TS 15.3000 -102.000 40 996 hurdat_epa main 243 227 O_____________ hurdat_epa EP041991 15.3000 -102.000 TS 40 996 0 5 333
1991174N13259 1991 32 EP MM DELORES 1991-06-24 09:00:00 TS 15.5349 -102.120 main 227 211 P_____________ EP041991 15.5349 -102.120 TS 42 995 0 6 330
1991174N13259 1991 32 EP MM DELORES 1991-06-24 12:00:00 TS 15.8000 -102.300 45 994 hurdat_epa main 211 198 O_____________ hurdat_epa EP041991 15.8000 -102.300 TS 45 994 0 7 323
1991174N13259 1991 32 EP MM DELORES 1991-06-24 15:00:00 TS 16.0925 -102.563 main 203 179 P_____________ EP041991 16.0925 -102.563 TS 47 993 0 8 316
1991174N13259 1991 32 EP MM DELORES 1991-06-24 18:00:00 TS 16.4000 -102.900 50 992 hurdat_epa main 179 158 O_____________ hurdat_epa EP041991 16.4000 -102.900 TS 50 992 0 9 312
1991174N13259 1991 32 EP MM DELORES 1991-06-24 21:00:00 TS 16.7150 -103.277 main 162 140 P_____________ EP041991 16.7150 -103.277 TS 55 990 0 10 308
1991174N13259 1991 32 EP MM DELORES 1991-06-25 00:00:00 TS 17.0000 -103.700 60 989 hurdat_epa main 144 133 O_____________ hurdat_epa EP041991 17.0000 -103.700 TS 60 989 0 10 301
1991174N13259 1991 32 EP MM DELORES 1991-06-25 03:00:00 TS 17.2149 -104.135 main 138 134 P_____________ EP041991 17.2149 -104.135 TS 62 987 0 10 295
1991174N13259 1991 32 EP MM DELORES 1991-06-25 06:00:00 TS 17.4000 -104.600 65 985 hurdat_epa main 153 153 O_____________ hurdat_epa EP041991 17.4000 -104.600 HU 65 985 1 10 295
1991174N13259 1991 32 EP MM DELORES 1991-06-25 09:00:00 TS 17.6299 -105.085 main 177 168 P_____________ EP041991 17.6299 -105.085 HU 67 983 1 10 293
1991174N13259 1991 32 EP MM DELORES 1991-06-25 12:00:00 TS 17.8000 -105.600 70 982 hurdat_epa main 177 177 O_____________ hurdat_epa EP041991 17.8000 -105.600 HU 70 982 1 10 280
1991174N13259 1991 32 EP MM DELORES 1991-06-25 15:00:00 TS 17.8000 -106.151 main 215 215 P_____________ EP041991 17.8000 -106.151 HU 72 980 1 10 270
1991174N13259 1991 32 EP MM DELORES 1991-06-25 18:00:00 TS 17.8000 -106.700 75 979 hurdat_epa main 253 253 O_____________ hurdat_epa EP041991 17.8000 -106.700 HU 75 979 1 10 280
1991174N13259 1991 32 EP MM DELORES 1991-06-25 21:00:00 TS 17.9698 -107.200 main 275 275 P_____________ EP041991 17.9698 -107.200 HU 75 979 1 10 293
1991174N13259 1991 32 EP MM DELORES 1991-06-26 00:00:00 TS 18.2000 -107.700 75 979 hurdat_epa main 303 303 O_____________ hurdat_epa EP041991 18.2000 -107.700 HU 75 979 1 11 292
1991174N13259 1991 32 EP MM DELORES 1991-06-26 03:00:00 TS 18.3700 -108.250 main 344 344 P_____________ EP041991 18.3700 -108.250 HU 75 979 1 11 291
1991174N13259 1991 32 EP MM DELORES 1991-06-26 06:00:00 TS 18.6000 -108.800 75 979 hurdat_epa main 380 380 O_____________ hurdat_epa EP041991 18.6000 -108.800 HU 75 979 1 12 303
1991174N13259 1991 32 EP MM DELORES 1991-06-26 09:00:00 TS 19.0149 -109.315 main 408 391 P_____________ EP041991 19.0149 -109.315 HU 72 979 1 12 310
1991174N13259 1991 32 EP MM DELORES 1991-06-26 12:00:00 TS 19.4000 -109.800 70 980 hurdat_epa main 391 369 O_____________ hurdat_epa EP041991 19.4000 -109.800 HU 70 980 1 11 301
1991174N13259 1991 32 EP MM DELORES 1991-06-26 15:00:00 TS 19.5599 -110.273 main 370 370 P_____________ EP041991 19.5599 -110.273 HU 67 982 1 9 283
1991174N13259 1991 32 EP MM DELORES 1991-06-26 18:00:00 TS 19.6000 -110.700 65 985 hurdat_epa main 376 376 O_____________ hurdat_epa EP041991 19.6000 -110.700 HU 65 985 1 8 276
1991174N13259 1991 32 EP MM DELORES 1991-06-26 21:00:00 TS 19.6375 -111.095 main 386 386 P_____________ EP041991 19.6375 -111.095 HU 62 987 0 7 270
1991174N13259 1991 32 EP MM DELORES 1991-06-27 00:00:00 TS 19.6000 -111.400 60 990 hurdat_epa main 396 396 O_____________ hurdat_epa EP041991 19.6000 -111.400 TS 60 990 0 5 252
1991174N13259 1991 32 EP MM DELORES 1991-06-27 03:00:00 TS 19.4874 -111.595 main 414 414 P_____________ EP041991 19.4874 -111.595 TS 55 992 0 4 223
1991174N13259 1991 32 EP MM DELORES 1991-06-27 06:00:00 TS 19.3000 -111.700 50 994 hurdat_epa main 439 439 O_____________ hurdat_epa EP041991 19.3000 -111.700 TS 50 994 0 5 201
1991174N13259 1991 32 EP MM DELORES 1991-06-27 09:00:00 TS 19.0575 -111.772 main 464 464 P_____________ EP041991 19.0575 -111.772 TS 45 995 0 5 191
1991174N13259 1991 32 EP MM DELORES 1991-06-27 12:00:00 TS 18.8000 -111.800 40 997 hurdat_epa main 495 495 O_____________ hurdat_epa EP041991 18.8000 -111.800 TS 40 997 0 5 184
1991174N13259 1991 32 EP MM DELORES 1991-06-27 15:00:00 TS 18.5775 -111.807 main 515 515 P_____________ EP041991 18.5775 -111.807 TS 37 998 0 4 0
1991174N13259 1991 32 EP MM DELORES 1991-06-27 18:00:00 TS 18.4000 -111.800 35 999 hurdat_epa main 536 536 O_____________ hurdat_epa EP041991 18.4000 -111.800 TS 35 999 0 3 0
1991174N13259 1991 32 EP MM DELORES 1991-06-27 21:00:00 TS 18.2700 -111.815 main 547 547 P_____________ EP041991 18.2700 -111.815 TS 32 999 -1 2 172
1991174N13259 1991 32 EP MM DELORES 1991-06-28 00:00:00 TS 18.2000 -111.800 30 1000 hurdat_epa main 558 554 O_____________ hurdat_epa EP041991 18.2000 -111.800 TD 30 1000 -1 1 130
1991174N13259 1991 32 EP MM DELORES 1991-06-28 03:00:00 TS 18.1850 -111.715 main 554 551 P_____________ EP041991 18.1850 -111.715 TD 27 1001 -1 2 90
1991174N13259 1991 32 EP MM DELORES 1991-06-28 06:00:00 TS 18.2000 -111.600 25 1002 hurdat_epa main 551 548 O_____________ hurdat_epa EP041991 18.2000 -111.600 TD 25 1002 -1 2 86
1991174N13259 1991 32 EP MM DELORES 1991-06-28 09:00:00 TS 18.2000 -111.493 main 548 545 P_____________ EP041991 18.2000 -111.493 TD 25 1002 -1 2 90
1991174N13259 1991 32 EP MM DELORES 1991-06-28 12:00:00 TS 18.2000 -111.400 25 1003 hurdat_epa main 545 542 O_____________ hurdat_epa EP041991 18.2000 -111.400 TD 25 1003 -1 1 90
1991174N13259 1991 32 EP MM DELORES 1991-06-28 15:00:00 TS 18.2000 -111.340 main 542 542 P_____________ EP041991 18.2000 -111.340 TD 25 1003 -1 1 90
1991174N13259 1991 32 EP MM DELORES 1991-06-28 18:00:00 TS 18.2000 -111.300 25 1004 hurdat_epa main 542 O_____________ hurdat_epa EP041991 18.2000 -111.300 TD 25 1004 -1 1 90

IBTrACS Databaseについて

本データベースは、米国NOAAが公開する1842年以降の世界の熱帯低気圧のベストトラックデータアーカイブInternational Best Track Archive for Climate Stewardship (IBTrACS)を、ウェブで閲覧しやすい形式に変換したものです。

最終更新日:2021-11-26